Terminal Aerodrome Forecast
Issued by NWS

Home | Current Version | Previous Version | Graphics & Text | Print | Product List | Glossary On
Versions: 1 2 3 4 5 6 7 8 9 10 11 12 13 14 15 16 17
000
FTUS43 KGRB 210500
TAFCWA
TAF
KCWA 210520Z 2106/2206 00000KT 6SM BR SCT025 BKN060
      TEMPO 2106/2109 2SM -SHRA BR BKN025
     FM210900 07003KT 4SM BR SCT017 OVC040
      TEMPO 2109/2113 1SM -SHRA BR BKN025
     FM211500 15003KT 6SM BR BKN020 BKN035
     FM211700 VRB03KT 6SM -SHRA BR BKN018 BKN030
     FM212100 30008KT P6SM SCT018 BKN035
     FM220100 32010G18KT P6SM SCT035 SCT090
      AMD LTD TO CLD VIS AND WIND TIL 211200=

USA.gov is the U.S. government's official web portal to all federal, state and local government web resources and services.